createdAt,value
2023-05-23T00:00:03.038Z,16.85
2023-05-23T00:02:30.667Z,16.83
2023-05-23T00:04:59.155Z,16.74
2023-05-23T00:07:27.157Z,16.70
2023-05-23T00:09:54.571Z,16.72
2023-05-23T00:12:23.467Z,16.63
2023-05-23T00:14:53.453Z,16.49
2023-05-23T00:17:22.044Z,16.32
2023-05-23T00:19:49.515Z,16.18
2023-05-23T00:22:17.378Z,16.09
2023-05-23T00:24:44.960Z,16.05
2023-05-23T00:27:12.402Z,16.01
2023-05-23T00:29:41.245Z,16.02
2023-05-23T00:32:08.668Z,16.00
2023-05-23T00:34:36.591Z,16.03
2023-05-23T00:37:05.006Z,15.94
2023-05-23T00:39:32.449Z,15.85
2023-05-23T00:41:59.938Z,15.81
2023-05-23T00:44:27.341Z,15.86
2023-05-23T00:46:58.443Z,15.88
2023-05-23T00:49:28.021Z,15.75
2023-05-23T00:51:55.687Z,15.78
2023-05-23T00:54:29.164Z,15.73
2023-05-23T00:56:56.909Z,15.56
2023-05-23T00:59:25.960Z,15.45
2023-05-23T01:01:57.250Z,15.44
2023-05-23T01:04:26.555Z,15.43
2023-05-23T01:06:55.262Z,15.36
2023-05-23T01:09:24.396Z,15.42
2023-05-23T01:12:04.776Z,15.43
2023-05-23T01:14:38.872Z,15.40
2023-05-23T01:17:14.140Z,15.33
2023-05-23T01:19:53.933Z,15.18
2023-05-23T01:22:34.153Z,15.08
2023-05-23T01:25:17.249Z,15.11
2023-05-23T01:27:54.425Z,15.06
2023-05-23T01:30:22.348Z,14.97
2023-05-23T01:32:53.474Z,14.93
2023-05-23T01:35:27.038Z,14.84
2023-05-23T01:37:55.140Z,14.71
2023-05-23T01:40:23.286Z,14.57
2023-05-23T01:42:52.761Z,14.64
2023-05-23T01:45:21.351Z,14.76
2023-05-23T01:47:51.815Z,14.59
2023-05-23T01:50:19.657Z,14.51
2023-05-23T01:52:47.969Z,14.35
2023-05-23T01:55:22.976Z,14.29
2023-05-23T01:57:54.590Z,14.21
2023-05-23T02:00:22.204Z,14.31
2023-05-23T02:02:52.240Z,14.33
2023-05-23T02:05:19.798Z,14.50
2023-05-23T02:07:47.250Z,14.63
2023-05-23T02:10:14.826Z,14.70
2023-05-23T02:12:42.285Z,14.74
2023-05-23T02:15:11.715Z,14.82
2023-05-23T02:17:39.697Z,14.84
2023-05-23T02:20:08.617Z,14.86
2023-05-23T02:22:38.792Z,14.85
2023-05-23T02:25:07.713Z,14.86
2023-05-23T02:27:35.189Z,14.94
2023-05-23T02:30:04.913Z,14.95
2023-05-23T02:32:34.006Z,14.96
2023-05-23T02:35:01.777Z,14.98
2023-05-23T02:37:29.486Z,14.97
2023-05-23T02:39:57.489Z,15.01
2023-05-23T02:42:24.903Z,14.99
2023-05-23T02:44:52.331Z,14.99
2023-05-23T02:47:19.905Z,14.99
2023-05-23T02:49:48.881Z,15.00
2023-05-23T02:52:17.928Z,15.01
2023-05-23T02:54:45.652Z,15.04
2023-05-23T02:57:13.061Z,15.01
2023-05-23T02:59:41.088Z,14.98
2023-05-23T03:02:08.577Z,14.92
2023-05-23T03:04:38.152Z,14.91
2023-05-23T03:07:11.641Z,14.93
2023-05-23T03:09:48.151Z,14.95
2023-05-23T03:12:15.772Z,14.93
2023-05-23T03:14:43.321Z,14.96
2023-05-23T03:17:14.500Z,14.98
2023-05-23T03:19:42.115Z,15.05
2023-05-23T03:22:13.295Z,14.98
2023-05-23T03:24:40.876Z,14.86
2023-05-23T03:27:08.659Z,14.56
2023-05-23T03:29:36.269Z,14.41
2023-05-23T03:32:03.953Z,14.37
2023-05-23T03:34:35.133Z,14.26
2023-05-23T03:37:02.706Z,14.25
2023-05-23T03:39:31.807Z,14.20
2023-05-23T03:41:59.417Z,14.17
2023-05-23T03:44:27.202Z,14.13
2023-05-23T03:46:54.823Z,14.20
2023-05-23T03:49:22.646Z,14.11
2023-05-23T03:51:51.031Z,14.09
2023-05-23T03:54:19.191Z,14.05
2023-05-23T03:56:48.149Z,14.01
2023-05-23T03:59:15.900Z,14.00
2023-05-23T04:01:43.701Z,14.01
2023-05-23T04:04:11.475Z,14.02
2023-05-23T04:06:39.743Z,14.03
2023-05-23T04:09:07.410Z,14.09
2023-05-23T04:11:35.263Z,14.11
2023-05-23T04:14:05.803Z,14.12
2023-05-23T04:16:33.766Z,14.16
2023-05-23T04:19:04.194Z,14.17
2023-05-23T04:21:33.206Z,14.17
2023-05-23T04:24:02.976Z,14.20
2023-05-23T04:26:30.532Z,14.24
2023-05-23T04:28:59.431Z,14.19
2023-05-23T04:31:28.235Z,14.21
2023-05-23T04:33:56.237Z,14.13
2023-05-23T04:36:25.746Z,14.07
2023-05-23T04:38:53.778Z,14.08
2023-05-23T04:41:23.469Z,14.08
2023-05-23T04:43:54.366Z,14.04
2023-05-23T04:46:26.800Z,13.95
2023-05-23T04:48:56.450Z,14.02
2023-05-23T04:51:23.926Z,13.99
2023-05-23T04:53:52.526Z,13.96
2023-05-23T04:56:22.239Z,13.95
2023-05-23T04:58:49.726Z,13.98
2023-05-23T05:01:17.390Z,13.96
2023-05-23T05:03:44.917Z,13.93
2023-05-23T05:06:14.890Z,13.96
2023-05-23T05:08:42.314Z,13.97
2023-05-23T05:11:11.433Z,13.99
2023-05-23T05:13:38.858Z,14.02
2023-05-23T05:16:06.851Z,13.97
2023-05-23T05:18:34.903Z,13.97
2023-05-23T05:21:02.331Z,13.98
2023-05-23T05:23:33.259Z,14.03
2023-05-23T05:26:01.460Z,14.03
2023-05-23T05:28:29.129Z,14.06
2023-05-23T05:30:59.439Z,14.04
2023-05-23T05:33:28.269Z,14.06
2023-05-23T05:35:55.748Z,14.12
2023-05-23T05:38:23.178Z,14.16
2023-05-23T05:40:51.894Z,14.16
2023-05-23T05:43:19.462Z,14.18
2023-05-23T05:45:46.904Z,14.21
2023-05-23T05:48:14.467Z,14.22
2023-05-23T05:50:45.113Z,14.24
2023-05-23T05:53:13.704Z,14.28
2023-05-23T05:55:41.237Z,14.35
2023-05-23T05:58:10.125Z,14.30
2023-05-23T06:00:42.291Z,14.35
2023-05-23T06:03:10.154Z,14.38
2023-05-23T06:05:39.416Z,14.36
2023-05-23T06:08:06.982Z,14.42
2023-05-23T06:10:35.035Z,14.43
2023-05-23T06:13:02.467Z,14.52
2023-05-23T06:15:31.490Z,14.50
2023-05-23T06:17:59.012Z,14.53
2023-05-23T06:20:26.530Z,14.47
2023-05-23T06:22:54.300Z,14.50
2023-05-23T06:25:21.763Z,14.48
2023-05-23T06:27:50.013Z,14.48
2023-05-23T06:30:17.709Z,14.54
2023-05-23T06:32:46.503Z,14.50
2023-05-23T06:35:13.959Z,14.55
2023-05-23T06:37:45.504Z,14.47
2023-05-23T06:40:14.144Z,14.48
2023-05-23T06:42:44.199Z,14.59
2023-05-23T06:45:14.221Z,14.47
2023-05-23T06:47:43.807Z,14.48
2023-05-23T06:50:13.141Z,14.53
2023-05-23T06:52:42.594Z,14.49
2023-05-23T06:55:14.371Z,14.50
2023-05-23T06:57:41.814Z,14.49
2023-05-23T07:00:10.286Z,14.47
2023-05-23T07:02:37.852Z,14.49
2023-05-23T07:05:06.170Z,14.51
2023-05-23T07:07:34.992Z,14.33
2023-05-23T07:10:02.547Z,14.39
2023-05-23T07:12:29.973Z,14.32
2023-05-23T07:14:57.615Z,14.26
2023-05-23T07:17:25.474Z,14.27
2023-05-23T07:19:52.961Z,14.18
2023-05-23T07:22:20.407Z,14.17
2023-05-23T07:24:49.168Z,14.20
2023-05-23T07:27:16.707Z,14.20
2023-05-23T07:29:44.239Z,14.11
2023-05-23T07:32:11.703Z,14.17
2023-05-23T07:34:39.310Z,14.31
2023-05-23T07:37:07.251Z,14.19
2023-05-23T07:39:35.567Z,14.15
2023-05-23T07:42:04.813Z,14.17
2023-05-23T07:44:32.213Z,14.18
2023-05-23T07:46:59.757Z,14.09
2023-05-23T07:49:27.306Z,14.12
2023-05-23T07:51:54.735Z,14.15
2023-05-23T07:54:22.725Z,14.12
2023-05-23T07:56:50.405Z,14.01
2023-05-23T07:59:19.155Z,14.09
2023-05-23T08:01:46.685Z,14.00
2023-05-23T08:04:14.619Z,14.03
2023-05-23T08:06:51.944Z,13.97
2023-05-23T08:09:24.626Z,13.93
2023-05-23T08:11:52.110Z,13.91
2023-05-23T08:14:21.650Z,13.88
2023-05-23T08:16:49.207Z,13.84
2023-05-23T08:19:16.740Z,13.78
2023-05-23T08:21:44.230Z,13.77
2023-05-23T08:24:14.796Z,13.63
2023-05-23T08:26:42.705Z,13.58
2023-05-23T08:29:10.667Z,13.46
2023-05-23T08:31:39.463Z,13.34
2023-05-23T08:34:07.656Z,13.31
2023-05-23T08:36:36.444Z,13.35
2023-05-23T08:39:05.156Z,13.30
2023-05-23T08:41:32.680Z,13.24
2023-05-23T08:44:00.222Z,13.31
2023-05-23T08:46:28.127Z,13.22
2023-05-23T08:48:57.475Z,13.38
2023-05-23T08:51:27.480Z,13.49
2023-05-23T08:53:56.118Z,13.52
2023-05-23T08:56:25.801Z,13.42
2023-05-23T08:58:54.363Z,13.46
2023-05-23T09:01:24.079Z,13.38
2023-05-23T09:03:52.669Z,13.25
2023-05-23T09:10:10.193Z,13.23
2023-05-23T09:12:37.945Z,13.39
2023-05-23T09:15:06.418Z,13.34
2023-05-23T09:17:33.972Z,13.35
2023-05-23T09:20:01.642Z,13.16
2023-05-23T09:22:29.788Z,13.24
2023-05-23T09:24:58.037Z,13.14
2023-05-23T09:27:26.912Z,13.20
2023-05-23T09:29:54.463Z,13.06
2023-05-23T09:32:22.723Z,13.04
2023-05-23T09:34:57.797Z,13.27
2023-05-23T09:37:31.095Z,13.29
2023-05-23T09:40:00.655Z,13.48
2023-05-23T09:42:35.069Z,13.72
2023-05-23T09:45:04.766Z,13.66
2023-05-23T09:47:32.690Z,13.66
2023-05-23T09:50:00.198Z,13.62
2023-05-23T09:52:27.755Z,13.38
2023-05-23T09:54:55.698Z,13.37
2023-05-23T09:57:24.326Z,13.43
2023-05-23T09:59:56.394Z,13.42
2023-05-23T10:02:55.065Z,13.36
2023-05-23T10:05:39.097Z,13.49
2023-05-23T10:08:11.915Z,13.58
2023-05-23T10:11:33.943Z,13.61
2023-05-23T10:14:03.411Z,13.60
2023-05-23T10:16:41.100Z,13.55
2023-05-23T10:19:14.279Z,13.63
2023-05-23T10:21:46.840Z,13.59
2023-05-23T10:24:15.343Z,13.29
2023-05-23T10:26:44.825Z,13.18
2023-05-23T10:29:12.292Z,13.09
2023-05-23T10:31:41.832Z,13.20
2023-05-23T10:34:18.503Z,13.03
2023-05-23T10:36:54.418Z,13.27
2023-05-23T10:39:37.373Z,13.69
2023-05-23T10:42:11.651Z,13.98
2023-05-23T10:44:39.090Z,13.76
2023-05-23T10:47:08.091Z,13.61
2023-05-23T10:49:39.636Z,13.39
2023-05-23T10:52:08.351Z,12.94
2023-05-23T10:54:36.972Z,13.03
2023-05-23T10:57:05.356Z,12.90
2023-05-23T10:59:33.186Z,13.00
2023-05-23T11:02:02.328Z,12.83
2023-05-23T11:04:31.532Z,12.92
2023-05-23T11:06:59.400Z,12.72
2023-05-23T11:09:26.877Z,12.79
2023-05-23T11:12:02.684Z,12.83
2023-05-23T11:14:35.015Z,12.79
2023-05-23T11:17:15.872Z,12.85
2023-05-23T11:19:57.663Z,12.97
2023-05-23T11:22:29.554Z,12.94
2023-05-23T11:24:58.459Z,12.99
2023-05-23T11:27:30.449Z,13.10
2023-05-23T11:30:04.703Z,12.84
2023-05-23T11:32:32.722Z,12.80
2023-05-23T11:35:02.956Z,13.28
2023-05-23T11:37:31.049Z,13.65
2023-05-23T11:39:58.932Z,13.62
2023-05-23T11:42:26.731Z,13.54
2023-05-23T11:44:54.702Z,13.48
2023-05-23T11:47:22.304Z,13.48
2023-05-23T11:49:49.789Z,13.29
2023-05-23T11:52:18.786Z,13.13
2023-05-23T11:54:46.379Z,13.24
2023-05-23T11:57:14.909Z,13.34
2023-05-23T11:59:43.412Z,13.18
2023-05-23T12:02:10.921Z,13.16
2023-05-23T12:04:38.394Z,13.18
2023-05-23T12:07:07.597Z,13.75
2023-05-23T12:09:44.079Z,14.49
2023-05-23T12:12:11.836Z,15.20
2023-05-23T12:14:44.461Z,15.76
2023-05-23T12:17:13.438Z,16.21
2023-05-23T12:19:46.363Z,15.70
2023-05-23T12:22:13.823Z,15.63
2023-05-23T12:24:47.819Z,15.16
2023-05-23T12:27:17.326Z,15.17
2023-05-23T12:29:52.025Z,15.27
2023-05-23T12:32:19.495Z,15.73
2023-05-23T12:34:46.936Z,15.66
2023-05-23T12:39:45.540Z,16.38
2023-05-23T12:42:14.368Z,15.73
2023-05-23T12:44:42.055Z,14.64
2023-05-23T12:47:10.290Z,14.12
2023-05-23T12:49:38.103Z,14.34
2023-05-23T12:52:05.664Z,14.52
2023-05-23T12:54:33.080Z,14.90
2023-05-23T12:57:03.415Z,15.16
2023-05-23T12:59:32.210Z,15.18
2023-05-23T13:02:00.479Z,14.75
2023-05-23T13:04:30.197Z,14.90
2023-05-23T13:06:59.314Z,14.75
2023-05-23T13:09:26.729Z,14.88
2023-05-23T13:11:54.161Z,14.46
2023-05-23T13:14:21.635Z,14.39
2023-05-23T13:16:50.518Z,14.68
2023-05-23T13:19:18.123Z,15.27
2023-05-23T13:21:46.672Z,15.94
2023-05-23T13:24:16.174Z,17.43
2023-05-23T13:26:43.789Z,19.50
2023-05-23T13:29:11.232Z,18.37
2023-05-23T13:31:38.777Z,17.24
2023-05-23T13:34:07.643Z,17.48
2023-05-23T13:36:35.969Z,17.13
2023-05-23T13:39:05.720Z,16.99
2023-05-23T13:41:33.137Z,16.94
2023-05-23T13:44:00.555Z,16.73
2023-05-23T13:46:27.989Z,18.08
2023-05-23T13:48:55.435Z,19.97
2023-05-23T13:51:24.180Z,20.92
2023-05-23T13:53:52.055Z,20.06
2023-05-23T13:56:19.479Z,19.93
2023-05-23T13:58:46.920Z,18.88
2023-05-23T14:01:14.406Z,17.46
2023-05-23T14:03:42.937Z,17.08
2023-05-23T14:06:10.335Z,16.56
2023-05-23T14:08:39.081Z,16.56
2023-05-23T14:11:06.537Z,16.13
2023-05-23T14:13:33.979Z,16.54
2023-05-23T14:16:01.600Z,16.65
2023-05-23T14:18:29.134Z,16.77
2023-05-23T14:20:56.623Z,17.09
2023-05-23T14:23:24.053Z,16.61
2023-05-23T14:25:52.934Z,18.11
2023-05-23T14:28:20.481Z,19.49
2023-05-23T14:30:50.552Z,20.32
2023-05-23T14:33:39.542Z,21.34
2023-05-23T14:36:15.553Z,21.64
2023-05-23T14:38:45.445Z,20.47
2023-05-23T14:41:14.761Z,19.28
2023-05-23T14:43:49.603Z,18.23
2023-05-23T14:46:20.961Z,17.14
2023-05-23T14:48:48.393Z,15.84
2023-05-23T14:51:24.092Z,15.93
2023-05-23T14:54:09.234Z,17.41
2023-05-23T14:56:41.177Z,17.66
2023-05-23T14:59:11.213Z,17.81
2023-05-23T15:05:50.706Z,19.20
2023-05-23T15:08:20.270Z,18.40
2023-05-23T15:10:50.015Z,17.80
2023-05-23T15:13:19.005Z,18.82
2023-05-23T15:15:46.452Z,17.14
2023-05-23T15:18:24.606Z,16.29
2023-05-23T15:21:00.316Z,16.55
2023-05-23T15:23:27.823Z,16.32
2023-05-23T15:25:55.517Z,15.73
2023-05-23T15:28:24.507Z,15.84
2023-05-23T15:30:54.192Z,16.03
2023-05-23T15:33:21.924Z,16.82
2023-05-23T15:35:51.925Z,17.15
2023-05-23T15:38:20.256Z,16.86
2023-05-23T15:40:48.763Z,17.06
2023-05-23T15:43:16.571Z,16.95
2023-05-23T15:45:45.369Z,16.59
2023-05-23T15:48:12.928Z,16.24
2023-05-23T15:50:40.604Z,16.04
2023-05-23T15:53:08.616Z,15.93
2023-05-23T15:55:39.762Z,15.97
2023-05-23T15:58:09.435Z,15.58
2023-05-23T16:00:36.914Z,15.61
2023-05-23T16:03:05.855Z,15.68
2023-05-23T16:05:33.714Z,15.71
2023-05-23T16:08:01.234Z,15.71
2023-05-23T16:10:28.692Z,15.89
2023-05-23T16:12:57.114Z,16.16
2023-05-23T16:15:24.558Z,16.30
2023-05-23T16:17:52.017Z,17.97
2023-05-23T16:20:20.929Z,19.26
2023-05-23T16:22:48.396Z,20.62
2023-05-23T16:25:15.888Z,21.96
2023-05-23T16:27:43.395Z,21.58
2023-05-23T16:30:11.503Z,20.67
2023-05-23T16:32:38.999Z,20.43
2023-05-23T16:35:07.420Z,18.29
2023-05-23T16:37:36.187Z,16.58
2023-05-23T16:40:03.698Z,15.62
2023-05-23T16:42:31.116Z,16.61
2023-05-23T16:44:58.623Z,17.05
2023-05-23T16:47:26.726Z,16.63
2023-05-23T16:49:54.313Z,17.14
2023-05-23T16:52:21.801Z,16.07
2023-05-23T16:54:50.639Z,15.22
2023-05-23T16:58:17.568Z,-139.23
2023-05-23T17:01:45.490Z,-139.23
2023-05-23T17:05:11.572Z,-139.23
2023-05-23T17:08:37.533Z,-139.23
2023-05-23T17:12:04.892Z,-139.23
2023-05-23T17:14:48.896Z,15.22
2023-05-23T17:18:16.683Z,-139.23
2023-05-23T17:21:41.591Z,-139.23
2023-05-23T17:25:08.202Z,-139.23
2023-05-23T17:28:03.705Z,-139.23
2023-05-23T17:31:30.820Z,-139.23
2023-05-23T17:34:33.547Z,-139.23
2023-05-23T17:37:50.335Z,-139.23
2023-05-23T17:40:32.577Z,15.22
2023-05-23T17:43:18.102Z,15.22
2023-05-23T17:45:45.591Z,14.51
2023-05-23T17:49:11.794Z,-139.23
2023-05-23T17:52:17.917Z,-139.23
2023-05-23T17:55:42.542Z,-139.23
2023-05-23T17:59:12.239Z,-139.23
2023-05-23T18:02:38.200Z,-139.23
2023-05-23T18:06:04.689Z,-139.23
2023-05-23T18:09:30.631Z,-139.23
2023-05-23T18:12:56.774Z,-139.23
2023-05-23T18:16:24.062Z,-139.23
2023-05-23T18:19:50.803Z,-139.23
2023-05-23T18:23:14.847Z,-139.23
2023-05-23T18:25:58.336Z,-139.23
2023-05-23T18:29:24.267Z,-139.23
2023-05-23T18:32:39.794Z,-139.23
2023-05-23T18:36:06.759Z,-139.23
2023-05-23T18:39:32.771Z,-139.23
2023-05-23T18:42:58.748Z,-139.23
2023-05-23T18:45:44.884Z,-139.23
2023-05-23T18:49:12.142Z,-139.23
2023-05-23T18:52:38.790Z,-139.23
2023-05-23T18:55:08.433Z,-139.23
2023-05-23T18:57:35.876Z,-139.23
2023-05-23T19:00:04.107Z,-139.23
2023-05-23T19:02:31.947Z,-139.23
2023-05-23T19:05:00.754Z,-139.23
2023-05-23T19:07:28.185Z,-139.23
2023-05-23T19:09:55.628Z,-139.23
2023-05-23T19:12:23.332Z,-139.23
2023-05-23T19:14:50.762Z,-139.23
2023-05-23T19:17:18.224Z,-139.23
2023-05-23T19:19:45.690Z,-139.23
2023-05-23T19:22:14.515Z,-139.23
2023-05-23T19:24:42.173Z,-139.23
2023-05-23T19:27:09.630Z,-139.23
2023-05-23T19:29:37.298Z,-139.23
2023-05-23T19:32:04.922Z,-139.23
2023-05-23T19:34:32.900Z,-139.23
2023-05-23T19:37:00.869Z,-139.23
2023-05-23T19:39:29.609Z,-139.23
2023-05-23T19:41:57.102Z,-139.23
2023-05-23T19:44:24.523Z,-139.23
2023-05-23T19:46:52.676Z,-139.23
2023-05-23T19:49:20.862Z,-139.23
2023-05-23T19:51:50.975Z,-139.23
2023-05-23T19:54:18.629Z,-139.23
2023-05-23T19:56:47.478Z,-139.23
2023-05-23T19:59:14.913Z,-139.23
2023-05-23T20:01:42.594Z,-139.23
2023-05-23T20:04:12.742Z,-139.23
2023-05-23T20:06:40.403Z,-139.23
2023-05-23T20:09:07.871Z,-139.23
2023-05-23T20:11:35.995Z,-139.23
2023-05-23T20:14:04.728Z,-139.23
2023-05-23T20:16:32.542Z,-139.23
2023-05-23T20:19:00.343Z,14.51
2023-05-23T20:21:27.770Z,-139.23
2023-05-23T20:23:55.300Z,14.51
2023-05-23T20:26:23.031Z,-139.23
2023-05-23T20:28:50.513Z,14.51
2023-05-23T20:31:19.381Z,14.51
2023-05-23T20:33:46.838Z,14.51
2023-05-23T20:36:14.262Z,10.02
2023-05-23T20:38:42.009Z,10.00
2023-05-23T20:41:09.453Z,10.00
2023-05-23T20:43:37.990Z,9.90
2023-05-23T20:46:06.499Z,9.72
2023-05-23T20:48:35.272Z,9.72
2023-05-23T20:51:05.480Z,9.72
2023-05-23T20:53:33.287Z,9.43
2023-05-23T20:56:01.141Z,9.36
2023-05-23T20:58:28.661Z,9.42
2023-05-23T21:00:56.412Z,9.36
2023-05-23T21:03:23.952Z,9.32
2023-05-23T21:05:52.712Z,9.32
2023-05-23T21:08:21.040Z,9.29
2023-05-23T21:10:51.561Z,9.29
2023-05-23T21:13:21.074Z,9.26
2023-05-23T21:15:48.754Z,9.30
2023-05-23T21:18:16.213Z,9.22
2023-05-23T21:20:43.836Z,9.00
2023-05-23T21:23:12.775Z,8.88
2023-05-23T21:25:40.336Z,8.81
2023-05-23T21:28:07.756Z,8.72
2023-05-23T21:30:35.226Z,8.60
2023-05-23T21:33:02.769Z,8.50
2023-05-23T21:35:30.250Z,8.44
2023-05-23T21:37:57.765Z,8.28
2023-05-23T21:40:27.599Z,8.24
2023-05-23T21:42:55.031Z,8.16
2023-05-23T21:45:22.466Z,8.13
2023-05-23T21:47:49.992Z,8.05
2023-05-23T21:50:17.702Z,7.99
2023-05-23T21:52:45.104Z,8.06
2023-05-23T21:55:12.522Z,8.04
2023-05-23T21:57:41.264Z,8.06
2023-05-23T22:00:12.380Z,8.20
2023-05-23T22:02:40.033Z,8.18
2023-05-23T22:05:08.769Z,8.08
2023-05-23T22:07:36.584Z,8.00
2023-05-23T22:10:04.070Z,8.10
2023-05-23T22:12:32.184Z,8.05
2023-05-23T22:15:00.958Z,8.06
2023-05-23T22:17:29.538Z,-139.23
2023-05-23T22:19:58.021Z,8.00
2023-05-23T22:22:25.503Z,7.94
2023-05-23T22:24:53.178Z,7.86
2023-05-23T22:27:20.608Z,7.72
2023-05-23T22:29:48.075Z,7.66
2023-05-23T22:32:16.827Z,7.57
2023-05-23T22:34:45.347Z,7.56
2023-05-23T22:37:12.780Z,7.57
2023-05-23T22:39:40.270Z,7.42
2023-05-23T22:42:07.833Z,7.39
2023-05-23T22:44:35.254Z,7.38
2023-05-23T22:47:03.681Z,7.37
2023-05-23T22:49:32.491Z,7.43
2023-05-23T22:52:00.002Z,7.48
2023-05-23T22:54:27.468Z,7.45
2023-05-23T22:56:55.709Z,7.46
2023-05-23T22:59:23.123Z,7.45
2023-05-23T23:01:51.070Z,7.34
2023-05-23T23:04:23.376Z,7.17
2023-05-23T23:06:55.043Z,6.96
2023-05-23T23:09:22.496Z,6.72
2023-05-23T23:11:49.934Z,6.46
2023-05-23T23:14:17.398Z,6.29
2023-05-23T23:16:46.193Z,6.37
2023-05-23T23:19:13.920Z,6.43
2023-05-23T23:21:41.332Z,6.28
2023-05-23T23:24:10.942Z,6.02
2023-05-23T23:26:38.639Z,6.08
2023-05-23T23:29:06.111Z,6.06
2023-05-23T23:31:33.547Z,6.01
2023-05-23T23:34:00.971Z,6.05
2023-05-23T23:36:28.384Z,5.99
2023-05-23T23:38:55.941Z,5.88
2023-05-23T23:41:24.679Z,6.01
2023-05-23T23:43:52.083Z,5.83
2023-05-23T23:46:20.800Z,5.86
2023-05-23T23:48:48.377Z,5.77
2023-05-23T23:51:15.820Z,5.91
2023-05-23T23:53:44.585Z,6.08
2023-05-23T23:56:14.303Z,5.95
2023-05-23T23:58:43.033Z,6.02
